createdAt,value
2022-12-16T00:01:35.393Z,117.13
2022-12-16T00:04:02.624Z,115.00
2022-12-16T00:06:32.149Z,123.03
2022-12-16T00:08:59.949Z,131.30
2022-12-16T00:11:30.649Z,123.90
2022-12-16T00:13:57.661Z,127.27
2022-12-16T00:16:24.878Z,108.70
2022-12-16T00:18:52.212Z,124.57
2022-12-16T00:21:20.093Z,112.33
2022-12-16T00:23:47.125Z,133.53
2022-12-16T00:26:14.455Z,131.00
2022-12-16T00:28:43.962Z,125.70
2022-12-16T00:31:11.543Z,133.20
2022-12-16T00:33:38.643Z,116.53
2022-12-16T00:36:06.079Z,137.77
2022-12-16T00:38:33.467Z,128.70
2022-12-16T00:41:00.877Z,148.07
2022-12-16T00:43:27.949Z,133.20
2022-12-16T00:45:55.142Z,144.23
2022-12-16T00:48:23.665Z,144.07
2022-12-16T00:50:55.576Z,146.57
2022-12-16T00:53:24.309Z,126.27
2022-12-16T00:55:51.999Z,141.90
2022-12-16T00:58:19.277Z,138.37
2022-12-16T01:00:46.650Z,135.57
2022-12-16T01:03:19.460Z,148.10
2022-12-16T01:05:48.720Z,132.47
2022-12-16T01:08:15.804Z,141.10
2022-12-16T01:10:43.013Z,108.90
2022-12-16T01:13:10.450Z,136.60
2022-12-16T01:15:38.084Z,126.63
2022-12-16T01:18:05.493Z,139.27
2022-12-16T01:20:34.541Z,140.60
2022-12-16T01:23:01.567Z,145.33
2022-12-16T01:25:28.769Z,133.17
2022-12-16T01:27:56.066Z,143.17
2022-12-16T01:30:24.211Z,140.80
2022-12-16T01:32:51.274Z,140.47
2022-12-16T01:35:51.591Z,149.70
2022-12-16T01:38:06.320Z,148.67
2022-12-16T01:40:33.337Z,137.53
2022-12-16T01:43:00.356Z,143.27
2022-12-16T01:45:36.055Z,141.80
2022-12-16T01:48:38.567Z,150.67
2022-12-16T01:51:35.096Z,147.97
2022-12-16T01:54:10.122Z,136.70
2022-12-16T01:56:42.291Z,157.03
2022-12-16T01:59:11.604Z,128.73
2022-12-16T02:01:38.769Z,141.83
2022-12-16T02:04:06.093Z,144.20
2022-12-16T02:06:33.608Z,145.07
2022-12-16T02:09:06.346Z,148.83
2022-12-16T02:11:50.927Z,150.70
2022-12-16T02:14:35.967Z,146.93
2022-12-16T02:17:06.425Z,125.53
2022-12-16T02:19:55.646Z,145.13
2022-12-16T02:22:59.723Z,153.57
2022-12-16T02:25:57.894Z,144.30
2022-12-16T02:29:01.986Z,145.37
2022-12-16T02:31:37.768Z,148.43
2022-12-16T02:34:28.971Z,140.97
2022-12-16T02:37:21.208Z,138.93
2022-12-16T02:40:01.234Z,136.53
2022-12-16T02:42:36.057Z,137.73
2022-12-16T02:45:25.509Z,143.00
2022-12-16T02:47:53.380Z,156.47
2022-12-16T02:50:25.921Z,132.67
2022-12-16T02:52:55.964Z,142.60
2022-12-16T02:55:34.063Z,158.33
2022-12-16T02:58:38.972Z,142.10
2022-12-16T03:01:47.013Z,136.93
2022-12-16T03:04:46.545Z,132.37
2022-12-16T03:07:17.429Z,135.23
2022-12-16T03:09:46.891Z,123.73
2022-12-16T03:12:16.700Z,116.23
2022-12-16T03:14:46.999Z,129.80
2022-12-16T03:17:15.913Z,131.20
2022-12-16T03:19:49.839Z,137.27
2022-12-16T03:22:23.846Z,135.27
2022-12-16T03:24:51.253Z,122.13
2022-12-16T03:27:27.308Z,120.90
2022-12-16T03:29:59.017Z,124.90
2022-12-16T03:32:38.165Z,127.10
2022-12-16T03:35:20.871Z,121.63
2022-12-16T03:37:51.520Z,125.20
2022-12-16T03:40:19.784Z,122.43
2022-12-16T03:42:47.566Z,119.70
2022-12-16T03:45:19.014Z,129.97
2022-12-16T03:47:53.226Z,127.93
2022-12-16T03:50:25.391Z,126.37
2022-12-16T03:52:52.347Z,132.27
2022-12-16T03:55:19.306Z,130.00
2022-12-16T03:57:46.207Z,138.27
2022-12-16T04:00:13.557Z,110.97
2022-12-16T04:02:41.031Z,130.93
2022-12-16T04:05:08.656Z,135.80
2022-12-16T04:07:35.627Z,136.57
2022-12-16T04:10:02.775Z,123.17
2022-12-16T04:12:48.156Z,130.13
2022-12-16T04:15:38.596Z,137.73
2022-12-16T04:18:37.629Z,111.50
2022-12-16T04:21:23.860Z,132.90
2022-12-16T04:24:12.684Z,125.03
2022-12-16T04:26:58.364Z,121.53
2022-12-16T04:29:25.603Z,120.80
2022-12-16T04:31:52.973Z,106.97
2022-12-16T04:34:29.518Z,115.83
2022-12-16T04:37:17.945Z,120.57
2022-12-16T04:40:04.388Z,116.13
2022-12-16T04:42:51.078Z,105.13
2022-12-16T04:45:36.600Z,116.97
2022-12-16T04:48:22.867Z,103.60
2022-12-16T04:51:08.510Z,106.33
2022-12-16T04:53:54.287Z,114.23
2022-12-16T04:56:39.765Z,106.47
2022-12-16T04:59:25.437Z,106.60
2022-12-16T05:02:11.404Z,107.37
2022-12-16T05:04:56.983Z,101.13
2022-12-16T05:07:42.863Z,100.23
2022-12-16T05:10:28.197Z,99.57
2022-12-16T05:13:14.559Z,94.03
2022-12-16T05:16:00.373Z,95.50
2022-12-16T05:18:46.203Z,89.83
2022-12-16T05:21:42.226Z,88.10
2022-12-16T05:24:27.844Z,101.47
2022-12-16T05:27:13.684Z,100.67
2022-12-16T05:30:10.064Z,81.97
2022-12-16T05:32:56.038Z,83.33
2022-12-16T05:35:42.202Z,94.47
2022-12-16T05:38:28.286Z,72.63
2022-12-16T05:41:13.981Z,91.93
2022-12-16T05:43:59.763Z,79.50
2022-12-16T05:46:45.598Z,95.27
2022-12-16T05:49:31.688Z,89.93
2022-12-16T05:52:17.774Z,89.60
2022-12-16T05:55:03.886Z,79.60
2022-12-16T05:57:49.987Z,79.87
2022-12-16T06:00:36.025Z,86.30
2022-12-16T06:03:21.943Z,77.33
2022-12-16T06:06:07.770Z,91.97
2022-12-16T06:08:53.326Z,86.03
2022-12-16T06:11:39.509Z,86.07
2022-12-16T06:14:25.110Z,83.17
2022-12-16T06:17:11.063Z,90.90
2022-12-16T06:19:56.512Z,87.90
2022-12-16T06:22:42.177Z,88.17
2022-12-16T06:25:27.764Z,88.13
2022-12-16T06:28:13.299Z,88.67
2022-12-16T06:30:58.764Z,87.13
2022-12-16T06:33:44.312Z,85.27
2022-12-16T06:36:30.065Z,84.47
2022-12-16T06:39:15.704Z,80.63
2022-12-16T06:42:01.389Z,82.67
2022-12-16T06:44:47.012Z,97.87
2022-12-16T06:47:32.763Z,91.27
2022-12-16T06:50:18.198Z,84.83
2022-12-16T06:53:04.660Z,82.90
2022-12-16T06:55:50.230Z,73.97
2022-12-16T06:58:36.128Z,82.07
2022-12-16T07:01:21.903Z,75.37
2022-12-16T07:04:07.453Z,77.47
2022-12-16T07:06:52.766Z,74.83
2022-12-16T07:09:38.358Z,78.30
2022-12-16T07:12:23.919Z,78.23
2022-12-16T07:15:09.296Z,68.80
2022-12-16T07:17:54.727Z,68.00
2022-12-16T07:20:40.484Z,71.23
2022-12-16T07:23:26.210Z,69.20
2022-12-16T07:26:11.894Z,70.67
2022-12-16T07:28:57.169Z,67.87
2022-12-16T07:31:43.194Z,67.80
2022-12-16T07:34:29.055Z,68.53
2022-12-16T07:37:14.721Z,69.17
2022-12-16T07:40:00.508Z,89.83
2022-12-16T07:42:46.200Z,70.20
2022-12-16T07:45:31.654Z,59.17
2022-12-16T07:48:17.552Z,61.70
2022-12-16T07:51:03.097Z,66.40
2022-12-16T07:53:49.050Z,57.63
2022-12-16T07:56:34.885Z,63.10
2022-12-16T07:59:20.632Z,59.27
2022-12-16T08:02:06.522Z,56.70
2022-12-16T08:04:51.978Z,61.40
2022-12-16T08:07:37.715Z,57.67
2022-12-16T08:10:24.104Z,62.60
2022-12-16T08:13:09.743Z,59.80
2022-12-16T08:15:55.473Z,53.70
2022-12-16T08:18:41.678Z,58.03
2022-12-16T08:21:27.562Z,49.73
2022-12-16T08:24:13.350Z,51.77
2022-12-16T08:26:59.082Z,44.13
2022-12-16T08:29:45.381Z,54.23
2022-12-16T08:32:32.348Z,54.87
2022-12-16T08:35:18.099Z,52.77
2022-12-16T08:38:07.622Z,51.00
2022-12-16T08:40:57.694Z,51.33
2022-12-16T08:43:43.439Z,51.03
2022-12-16T08:46:29.208Z,48.77
2022-12-16T08:52:12.706Z,52.93
2022-12-16T08:54:58.548Z,48.07
2022-12-16T08:57:44.111Z,57.77
2022-12-16T09:00:30.443Z,52.00
2022-12-16T09:03:18.081Z,58.67
2022-12-16T09:06:04.407Z,55.30
2022-12-16T09:08:50.392Z,73.00
2022-12-16T09:11:36.271Z,52.00
2022-12-16T09:14:22.287Z,52.27
2022-12-16T09:17:08.002Z,45.83
2022-12-16T09:19:55.355Z,48.47
2022-12-16T09:22:41.404Z,47.13
2022-12-16T09:25:27.005Z,45.17
2022-12-16T09:28:12.884Z,43.87
2022-12-16T09:30:58.542Z,46.27
2022-12-16T09:33:44.342Z,43.93
2022-12-16T09:36:29.932Z,44.83
2022-12-16T09:39:15.729Z,42.37
2022-12-16T09:42:22.277Z,46.40
2022-12-16T09:45:36.966Z,42.67
2022-12-16T09:48:52.482Z,43.83
2022-12-16T09:51:39.658Z,43.33
2022-12-16T09:54:31.339Z,47.10
2022-12-16T09:57:19.947Z,41.27
2022-12-16T10:00:13.735Z,41.47
2022-12-16T10:03:06.844Z,43.83
2022-12-16T10:06:19.795Z,45.93
2022-12-16T10:09:19.697Z,49.57
2022-12-16T10:12:26.543Z,46.20
2022-12-16T10:15:21.253Z,45.90
2022-12-16T10:18:07.063Z,47.17
2022-12-16T10:21:03.797Z,45.83
2022-12-16T10:24:11.585Z,50.53
2022-12-16T10:27:15.962Z,47.67
2022-12-16T10:30:04.856Z,51.00
2022-12-16T10:32:57.508Z,52.90
2022-12-16T10:35:52.592Z,48.93
2022-12-16T10:38:57.254Z,50.13
2022-12-16T10:41:55.904Z,43.53
2022-12-16T10:44:58.311Z,48.30
2022-12-16T10:47:44.128Z,50.10
2022-12-16T10:50:33.643Z,49.43
2022-12-16T10:53:21.198Z,49.83
2022-12-16T10:56:18.711Z,50.40
2022-12-16T10:59:14.109Z,50.53
2022-12-16T11:02:00.038Z,49.27
2022-12-16T11:04:51.183Z,50.47
2022-12-16T11:07:45.578Z,49.53
2022-12-16T11:10:49.896Z,48.37
2022-12-16T11:13:40.387Z,47.37
2022-12-16T11:16:32.999Z,47.10
2022-12-16T11:19:19.438Z,51.73
2022-12-16T11:22:05.171Z,47.00
2022-12-16T11:24:51.568Z,53.77
2022-12-16T11:27:39.749Z,50.20
2022-12-16T11:30:41.027Z,46.07
2022-12-16T11:33:40.498Z,49.47
2022-12-16T11:36:45.510Z,52.20
2022-12-16T11:39:40.356Z,46.30
2022-12-16T11:42:30.949Z,49.10
2022-12-16T11:45:20.715Z,49.43
2022-12-16T11:48:20.848Z,45.07
2022-12-16T11:51:15.594Z,51.43
2022-12-16T11:54:09.263Z,67.37
2022-12-16T11:57:02.138Z,69.23
2022-12-16T12:00:16.717Z,60.23
2022-12-16T12:03:22.615Z,57.93
2022-12-16T12:06:31.427Z,52.73
2022-12-16T12:09:30.750Z,50.70
2022-12-16T12:12:27.634Z,58.90
2022-12-16T12:15:36.293Z,60.40
2022-12-16T12:18:48.619Z,56.37
2022-12-16T12:21:45.283Z,52.80
2022-12-16T12:24:33.533Z,55.60
2022-12-16T12:27:21.772Z,54.40
2022-12-16T12:30:28.823Z,52.60
2022-12-16T12:33:33.067Z,54.07
2022-12-16T12:36:41.932Z,60.70
2022-12-16T12:39:54.766Z,58.83
2022-12-16T12:42:51.649Z,52.13
2022-12-16T12:46:01.729Z,55.00
2022-12-16T12:49:12.259Z,64.10
2022-12-16T12:52:38.211Z,58.47
2022-12-16T12:55:45.950Z,58.27
2022-12-16T12:58:34.203Z,58.53
2022-12-16T13:01:21.884Z,63.97
2022-12-16T13:04:30.245Z,58.47
2022-12-16T13:07:19.147Z,71.33
2022-12-16T13:10:05.140Z,69.50
2022-12-16T13:12:52.839Z,67.90
2022-12-16T13:15:38.668Z,69.70
2022-12-16T13:18:23.888Z,75.67
2022-12-16T13:21:13.156Z,105.87
2022-12-16T13:24:01.539Z,73.37
2022-12-16T13:27:13.420Z,65.03
2022-12-16T13:29:59.209Z,71.47
2022-12-16T13:32:45.085Z,70.53
2022-12-16T13:35:30.817Z,77.40
2022-12-16T13:38:18.520Z,79.63
2022-12-16T13:41:25.302Z,82.10
2022-12-16T13:44:15.867Z,79.17
2022-12-16T13:47:12.519Z,84.00
2022-12-16T13:50:04.811Z,84.03
2022-12-16T13:52:59.166Z,83.17
2022-12-16T13:55:58.015Z,86.07
2022-12-16T13:58:58.488Z,86.47
2022-12-16T14:02:12.691Z,86.43
2022-12-16T14:05:03.388Z,86.73
2022-12-16T14:07:52.647Z,94.70
2022-12-16T14:10:49.144Z,89.47
2022-12-16T14:13:54.843Z,91.37
2022-12-16T14:16:48.241Z,98.30
2022-12-16T14:20:22.461Z,92.70
2022-12-16T14:26:46.281Z,90.83
2022-12-16T14:29:49.976Z,107.10
2022-12-16T14:32:50.186Z,94.00
2022-12-16T14:35:46.156Z,106.63
2022-12-16T14:38:54.382Z,101.93
2022-12-16T14:41:43.055Z,95.57
2022-12-16T14:44:43.440Z,103.17
2022-12-16T14:47:37.592Z,112.77
2022-12-16T14:51:04.067Z,113.47
2022-12-16T14:53:49.989Z,104.27
2022-12-16T14:56:40.884Z,99.90
2022-12-16T14:59:37.981Z,104.93
2022-12-16T15:02:44.266Z,107.10
2022-12-16T15:05:30.878Z,99.13
2022-12-16T15:08:16.982Z,98.77
2022-12-16T15:11:03.276Z,134.80
2022-12-16T15:13:49.745Z,110.23
2022-12-16T15:16:52.342Z,112.97
2022-12-16T15:19:41.057Z,106.10
2022-12-16T15:29:05.550Z,101.57
2022-12-16T15:32:01.398Z,104.93
2022-12-16T15:35:05.505Z,107.77
2022-12-16T15:38:02.317Z,105.53
2022-12-16T15:40:52.603Z,105.87
2022-12-16T15:43:58.809Z,110.50
2022-12-16T15:46:48.795Z,106.23
2022-12-16T15:49:45.196Z,117.30
2022-12-16T15:52:49.589Z,120.83
2022-12-16T15:55:51.710Z,125.87
2022-12-16T15:58:48.685Z,120.43
2022-12-16T16:01:37.860Z,109.87
2022-12-16T16:04:44.948Z,114.10
2022-12-16T16:07:41.801Z,107.90
2022-12-16T16:10:42.262Z,109.47
2022-12-16T16:13:28.946Z,117.43
2022-12-16T16:16:14.810Z,105.47
2022-12-16T16:19:01.710Z,112.90
2022-12-16T16:21:48.317Z,122.23
2022-12-16T16:24:34.216Z,110.57
2022-12-16T16:27:21.462Z,110.93
2022-12-16T16:30:07.260Z,107.40
2022-12-16T16:32:52.855Z,109.70
2022-12-16T16:35:38.594Z,221.13
2022-12-16T16:38:24.283Z,110.87
2022-12-16T16:41:10.273Z,99.87
2022-12-16T16:43:55.722Z,106.60
2022-12-16T16:46:50.885Z,112.73
2022-12-16T16:49:41.861Z,124.83
2022-12-16T16:52:32.779Z,141.63
2022-12-16T16:55:18.440Z,142.93
2022-12-16T16:58:04.380Z,154.47
2022-12-16T17:00:50.106Z,149.10
2022-12-16T17:03:36.723Z,148.83
2022-12-16T17:06:23.146Z,161.50
2022-12-16T17:09:08.936Z,151.03
2022-12-16T17:12:04.219Z,155.87
2022-12-16T17:14:49.834Z,152.43
2022-12-16T17:17:35.301Z,166.83
2022-12-16T17:20:21.083Z,163.40
2022-12-16T17:23:06.937Z,165.57
2022-12-16T17:25:52.704Z,170.43
2022-12-16T17:28:38.130Z,173.50
2022-12-16T17:31:24.116Z,168.40
2022-12-16T17:34:09.744Z,163.43
2022-12-16T17:36:55.332Z,170.27
2022-12-16T17:39:41.058Z,176.70
2022-12-16T17:42:26.504Z,169.37
2022-12-16T17:45:12.356Z,171.47
2022-12-16T17:47:58.140Z,173.67
2022-12-16T17:50:43.844Z,183.20
2022-12-16T17:53:29.703Z,179.60
2022-12-16T17:56:15.387Z,177.33
2022-12-16T17:59:00.911Z,177.10
2022-12-16T18:01:46.816Z,170.83
2022-12-16T18:04:32.313Z,169.83
2022-12-16T18:07:17.690Z,171.37
2022-12-16T18:10:03.335Z,176.67
2022-12-16T18:12:51.584Z,169.07
2022-12-16T18:15:37.154Z,191.63
2022-12-16T18:18:22.870Z,190.07
2022-12-16T18:21:08.809Z,179.40
2022-12-16T18:23:54.266Z,176.03
2022-12-16T18:26:39.914Z,186.30
2022-12-16T18:29:45.629Z,199.57
2022-12-16T18:32:35.045Z,185.60
2022-12-16T18:35:21.200Z,187.77
2022-12-16T18:38:11.004Z,204.73
2022-12-16T18:40:58.932Z,189.60
2022-12-16T18:43:44.288Z,187.77
2022-12-16T18:46:29.850Z,184.20
2022-12-16T18:49:15.494Z,198.70
2022-12-16T18:52:01.414Z,194.50
2022-12-16T18:54:47.275Z,187.87
2022-12-16T18:57:37.899Z,197.67
2022-12-16T19:00:25.821Z,196.70
2022-12-16T19:03:11.335Z,199.20
2022-12-16T19:05:57.074Z,186.93
2022-12-16T19:08:42.768Z,201.23
2022-12-16T19:11:28.459Z,193.20
2022-12-16T19:14:14.274Z,205.03
2022-12-16T19:16:59.914Z,193.70
2022-12-16T19:19:45.478Z,203.90
2022-12-16T19:22:31.308Z,204.13
2022-12-16T19:25:16.778Z,205.37
2022-12-16T19:28:02.292Z,215.00
2022-12-16T19:30:48.057Z,224.53
2022-12-16T19:33:34.045Z,231.20
2022-12-16T19:36:19.715Z,225.80
2022-12-16T19:39:05.452Z,200.47
2022-12-16T19:41:50.963Z,227.43
2022-12-16T19:44:38.141Z,213.73
2022-12-16T19:47:23.745Z,293.37
2022-12-16T19:50:09.440Z,238.13
2022-12-16T19:52:56.048Z,225.77
2022-12-16T19:55:41.815Z,235.80
2022-12-16T19:58:27.954Z,210.33
2022-12-16T20:01:13.838Z,225.73
2022-12-16T20:03:59.553Z,233.87
2022-12-16T20:06:45.547Z,212.47
2022-12-16T20:09:31.262Z,213.43
2022-12-16T20:12:16.993Z,211.80
2022-12-16T20:15:02.764Z,210.93
2022-12-16T20:17:48.909Z,216.33
2022-12-16T20:20:34.863Z,216.40
2022-12-16T20:23:20.318Z,204.67
2022-12-16T20:26:14.668Z,199.73
2022-12-16T20:29:01.032Z,212.00
2022-12-16T20:31:50.445Z,212.23
2022-12-16T20:34:37.415Z,230.67
2022-12-16T20:37:23.515Z,240.57
2022-12-16T20:40:09.389Z,226.73
2022-12-16T20:43:14.757Z,203.17
2022-12-16T20:46:00.275Z,174.63
2022-12-16T20:48:46.008Z,160.93
2022-12-16T20:51:31.905Z,129.97
2022-12-16T20:54:17.998Z,129.40
2022-12-16T20:57:05.991Z,130.27
2022-12-16T20:59:54.079Z,117.40
2022-12-16T21:02:41.852Z,116.23
2022-12-16T21:05:27.576Z,123.80
2022-12-16T21:08:13.184Z,110.90
2022-12-16T21:10:58.646Z,125.87
2022-12-16T21:13:44.932Z,133.63
2022-12-16T21:16:30.549Z,129.63
2022-12-16T21:19:16.317Z,127.17
2022-12-16T21:22:02.057Z,134.13
2022-12-16T21:24:47.830Z,121.13
2022-12-16T21:27:33.655Z,125.53
2022-12-16T21:30:19.413Z,141.13
2022-12-16T21:33:10.026Z,129.83
2022-12-16T21:35:56.073Z,115.23
2022-12-16T21:38:42.215Z,132.53
2022-12-16T21:41:28.042Z,130.93
2022-12-16T21:44:14.024Z,133.23
2022-12-16T21:47:02.384Z,122.17
2022-12-16T21:49:48.020Z,125.10
2022-12-16T21:52:33.953Z,124.10
2022-12-16T21:55:19.555Z,126.57
2022-12-16T21:58:05.227Z,116.23
2022-12-16T22:00:58.860Z,121.17
2022-12-16T22:03:53.239Z,125.83
2022-12-16T22:06:40.573Z,116.90
2022-12-16T22:09:27.939Z,115.20
2022-12-16T22:12:13.324Z,104.67
2022-12-16T22:14:58.944Z,106.27
2022-12-16T22:17:44.757Z,113.63
2022-12-16T22:20:30.879Z,110.37
2022-12-16T22:23:16.452Z,111.53
2022-12-16T22:26:02.302Z,103.63
2022-12-16T22:28:47.808Z,102.27
2022-12-16T22:31:33.450Z,104.43
2022-12-16T22:34:18.979Z,113.57
2022-12-16T22:37:05.144Z,106.80
2022-12-16T22:39:50.851Z,121.03
2022-12-16T22:42:37.165Z,114.97
2022-12-16T22:45:23.438Z,117.43
2022-12-16T22:48:09.021Z,117.70
2022-12-16T22:50:56.351Z,117.00
2022-12-16T22:53:42.294Z,105.30
2022-12-16T22:56:28.568Z,116.90
2022-12-16T22:59:14.388Z,110.57
2022-12-16T23:02:00.268Z,116.43
2022-12-16T23:04:46.292Z,123.77
2022-12-16T23:07:31.840Z,110.17
2022-12-16T23:10:17.582Z,120.50
2022-12-16T23:13:03.222Z,117.63
2022-12-16T23:15:48.859Z,120.90
2022-12-16T23:18:34.365Z,119.70
2022-12-16T23:21:20.148Z,122.47
2022-12-16T23:24:10.921Z,127.00
2022-12-16T23:26:56.702Z,123.53
2022-12-16T23:29:42.407Z,117.87
2022-12-16T23:32:28.239Z,121.47
2022-12-16T23:35:14.129Z,118.37
2022-12-16T23:37:59.894Z,122.60
2022-12-16T23:40:45.477Z,118.53
2022-12-16T23:43:31.263Z,118.77
2022-12-16T23:46:17.290Z,119.60
2022-12-16T23:49:02.802Z,128.90
2022-12-16T23:51:48.546Z,121.73
2022-12-16T23:54:34.348Z,121.07
2022-12-16T23:57:20.130Z,120.27
